Time;durP1;ratioP1;P1;durP2;ratioP2;P2;SDS_P1;SDS_P2;PMS_P1;PMS_P2;Temp;Humidity;BMP_temperature;BMP_pressure;BME280_temperature;BME280_humidity;BME280_pressure;Samples;Min_cycle;Max_cycle;Signal;HPM_P1;HPM_P2
2022/05/11 00:01:32;;;;;;;;;4.00;4.00;;;;;;;;5080652;28;61984;-82
2022/05/11 00:03:58;;;;;;;;;6.00;4.00;;;;;;;;5081482;28;62063;-83
2022/05/11 00:06:25;;;;;;;;;5.00;4.00;;;;;;;;5081053;28;61908;-82
2022/05/11 00:08:51;;;;;;;;;10.25;4.75;;;;;;;;5078689;28;64377;-81
2022/05/11 00:11:16;;;;;;;;;4.75;4.00;;;;;;;;5079725;28;61797;-82
2022/05/11 00:13:41;;;;;;;;;3.25;3.25;;;;;;;;5080812;28;61750;-82
2022/05/11 00:16:07;;;;;;;;;3.25;2.25;;;;;;;;5081075;28;62277;-82
2022/05/11 00:18:32;;;;;;;;;4.25;4.25;;;;;;;;5078762;28;63274;-83
2022/05/11 00:20:58;;;;;;;;;5.00;4.00;;;;;;;;5079272;28;62101;-82
2022/05/11 00:23:23;;;;;;;;;3.50;3.00;;;;;;;;5079488;28;61891;-83
2022/05/11 00:25:48;;;;;;;;;4.00;3.50;;;;;;;;5080397;28;61892;-83
2022/05/11 00:28:14;;;;;;;;;3.75;3.75;;;;;;;;5078835;28;63671;-83
2022/05/11 00:30:39;;;;;;;;;8.00;6.25;;;;;;;;5080500;27;61938;-82
2022/05/11 00:33:04;;;;;;;;;4.00;4.00;;;;;;;;5080513;28;62403;-83
2022/05/11 00:35:33;;;;;;;;;5.00;3.00;;;;;;;;5080657;27;61915;-83
2022/05/11 00:37:58;;;;;;;;;2.25;2.00;;;;;;;;5078346;28;64239;-82
2022/05/11 00:40:24;;;;;;;;;3.25;3.00;;;;;;;;5080436;28;61749;-83
2022/05/11 00:42:50;;;;;;;;;2.75;2.75;;;;;;;;5078965;28;61837;-82
2022/05/11 00:45:16;;;;;;;;;3.50;2.00;;;;;;;;5080964;28;61708;-83
2022/05/11 00:47:44;;;;;;;;;3.75;2.00;;;;;;;;5080305;27;64868;-83
2022/05/11 00:50:12;;;;;;;;;1.00;1.00;;;;;;;;5101022;27;61994;-82
2022/05/11 00:52:37;;;;;;;;;1.00;1.00;;;;;;;;5082637;27;61945;-82
2022/05/11 00:55:05;;;;;;;;;1.00;1.00;;;;;;;;5100650;27;62023;-82
2022/05/11 00:57:45;;;;;;;;;1.00;1.00;;;;;;;;5100353;27;63030;-82
2022/05/11 01:00:11;;;;;;;;;4.75;2.50;;;;;;;;5100600;27;61987;-83
2022/05/11 01:02:38;;;;;;;;;3.00;2.00;;;;;;;;5081898;27;62001;-83
2022/05/11 01:05:05;;;;;;;;;2.00;1.00;;;;;;;;5100708;27;62387;-83
2022/05/11 01:07:31;;;;;;;;;1.00;1.00;;;;;;;;5100103;27;62246;-82
2022/05/11 01:09:57;;;;;;;;;1.50;1.50;;;;;;;;5100151;27;61838;-83
2022/05/11 01:12:26;;;;;;;;;1.00;1.00;;;;;;;;5100513;27;62427;-83
2022/05/11 01:14:53;;;;;;;;;2.00;2.00;;;;;;;;5100607;27;61785;-83
2022/05/11 01:17:19;;;;;;;;;2.00;2.00;;;;;;;;5081088;27;63738;-82
2022/05/11 01:19:49;;;;;;;;;3.50;2.00;;;;;;;;5100449;27;61805;-83
2022/05/11 01:22:31;;;;;;;;;6.00;3.00;;;;;;;;5085000;27;61759;-82
2022/05/11 01:24:56;;;;;;;;;2.75;2.00;;;;;;;;5103871;27;62044;-83
2022/05/11 01:27:30;;;;;;;;;3.00;2.00;;;;;;;;5103642;27;62701;-82
2022/05/11 01:29:57;;;;;;;;;5.00;2.00;;;;;;;;5103931;27;61801;-83
2022/05/11 01:32:23;;;;;;;;;2.00;2.00;;;;;;;;5103666;27;61930;-83
2022/05/11 01:34:52;;;;;;;;;2.00;1.50;;;;;;;;5104073;27;61940;-82
2022/05/11 01:37:18;;;;;;;;;2.00;1.00;;;;;;;;5085107;27;63755;-83
2022/05/11 01:39:44;;;;;;;;;1.00;1.00;;;;;;;;5085124;27;61917;-82
2022/05/11 01:42:10;;;;;;;;;2.00;2.00;;;;;;;;5103804;27;61911;-83
2022/05/11 01:44:36;;;;;;;;;2.50;1.00;;;;;;;;5104064;27;62019;-83
2022/05/11 01:47:01;;;;;;;;;5.75;2.75;;;;;;;;5084176;27;64563;-84
2022/05/11 01:49:27;;;;;;;;;1.25;1.25;;;;;;;;5103593;27;61857;-83
2022/05/11 01:51:53;;;;;;;;;2.00;2.00;;;;;;;;5085034;27;61802;-83
2022/05/11 01:54:18;;;;;;;;;3.50;2.00;;;;;;;;5103787;27;61713;-83
2022/05/11 01:56:43;;;;;;;;;4.00;3.00;;;;;;;;5103072;27;61997;-83
2022/05/11 01:59:09;;;;;;;;;3.25;2.25;;;;;;;;5084958;27;61900;-83
2022/05/11 02:01:37;;;;;;;;;3.00;2.00;;;;;;;;5103304;27;61761;-83
2022/05/11 02:04:02;;;;;;;;;1.00;1.00;;;;;;;;5103683;27;61801;-82
2022/05/11 02:09:12;;;;;;;;;0.75;0.75;;;;;;;;5103104;27;61742;-83
2022/05/11 02:11:38;;;;;;;;;2.00;2.00;;;;;;;;5103256;27;62162;-84
2022/05/11 02:14:03;;;;;;;;;1.50;1.50;;;;;;;;5103235;27;62246;-83
2022/05/11 02:16:28;;;;;;;;;1.50;1.50;;;;;;;;5102488;27;61807;-82
2022/05/11 02:18:55;;;;;;;;;2.75;2.75;;;;;;;;5103269;27;62029;-83
2022/05/11 02:21:20;;;;;;;;;1.75;1.75;;;;;;;;5103300;27;61776;-83
2022/05/11 02:23:48;;;;;;;;;2.00;2.00;;;;;;;;5084653;27;61900;-82
2022/05/11 02:26:13;;;;;;;;;5.25;4.00;;;;;;;;5083765;27;63779;-82
2022/05/11 02:28:39;;;;;;;;;2.00;2.00;;;;;;;;5103226;27;61728;-83
2022/05/11 02:31:04;;;;;;;;;2.00;2.00;;;;;;;;5084288;27;61838;-83
2022/05/11 02:33:30;;;;;;;;;1.00;1.00;;;;;;;;5101738;27;61826;-83
2022/05/11 02:35:55;;;;;;;;;4.00;2.00;;;;;;;;5083939;27;63527;-83
2022/05/11 02:38:22;;;;;;;;;2.50;2.50;;;;;;;;5102383;27;62220;-82
2022/05/11 02:40:48;;;;;;;;;2.50;2.50;;;;;;;;5102683;27;62304;-82
2022/05/11 02:43:13;;;;;;;;;4.50;2.00;;;;;;;;5102967;27;62143;-83
2022/05/11 02:45:40;;;;;;;;;3.00;2.00;;;;;;;;5108001;27;61725;-83
2022/05/11 02:48:07;;;;;;;;;3.25;2.00;;;;;;;;5107023;27;61937;-84
2022/05/11 02:50:43;;;;;;;;;1.75;1.75;;;;;;;;5085262;27;62121;-83
2022/05/11 02:53:10;;;;;;;;;2.50;2.50;;;;;;;;5103739;27;62283;-84
2022/05/11 02:55:36;;;;;;;;;2.00;2.00;;;;;;;;5084300;27;63806;-83
2022/05/11 02:58:02;;;;;;;;;2.75;2.00;;;;;;;;5103355;27;61903;-83
2022/05/11 03:00:28;;;;;;;;;7.50;2.50;;;;;;;;5102562;27;62110;-83
2022/05/11 03:02:53;;;;;;;;;2.00;2.00;;;;;;;;5103053;27;61776;-83
2022/05/11 03:05:19;;;;;;;;;2.25;1.75;;;;;;;;5102522;27;62858;-84
2022/05/11 03:07:44;;;;;;;;;2.00;2.00;;;;;;;;5103090;27;62435;-84
2022/05/11 03:10:12;;;;;;;;;4.75;4.25;;;;;;;;5084930;27;62133;-84
2022/05/11 03:12:38;;;;;;;;;12.00;9.75;;;;;;;;5103369;27;61960;-84
2022/05/11 03:15:04;;;;;;;;;9.00;9.00;;;;;;;;5102598;27;62742;-84
2022/05/11 03:17:29;;;;;;;;;9.50;8.50;;;;;;;;5084571;27;62040;-83
2022/05/11 03:19:55;;;;;;;;;6.00;3.50;;;;;;;;5084933;27;61871;-84
2022/05/11 03:22:20;;;;;;;;;7.50;6.50;;;;;;;;5103157;27;62152;-84
2022/05/11 03:24:45;;;;;;;;;8.00;6.75;;;;;;;;5083832;27;63619;-84
2022/05/11 03:27:10;;;;;;;;;5.00;5.00;;;;;;;;5102887;27;61654;-83
2022/05/11 03:29:36;;;;;;;;;5.75;5.00;;;;;;;;5103029;27;61773;-83
2022/05/11 03:34:47;;;;;;;;;3.50;3.25;;;;;;;;5102284;27;61825;-83
2022/05/11 03:37:14;;;;;;;;;5.00;4.25;;;;;;;;5084292;27;62000;-82
2022/05/11 03:39:39;;;;;;;;;4.00;3.50;;;;;;;;5102302;27;61920;-83
2022/05/11 03:42:06;;;;;;;;;2.50;2.50;;;;;;;;5102753;27;61729;-83
2022/05/11 03:44:31;;;;;;;;;7.00;5.00;;;;;;;;5083097;27;63875;-83
2022/05/11 03:46:56;;;;;;;;;3.50;3.50;;;;;;;;5102413;27;62307;-84
2022/05/11 03:49:21;;;;;;;;;6.00;4.25;;;;;;;;5102587;27;61740;-84
2022/05/11 03:51:49;;;;;;;;;4.25;4.00;;;;;;;;5084267;27;61860;-84
2022/05/11 03:54:16;;;;;;;;;4.25;4.00;;;;;;;;5101958;27;61761;-84
2022/05/11 03:56:41;;;;;;;;;4.75;4.75;;;;;;;;5102174;27;61786;-84
2022/05/11 03:59:06;;;;;;;;;4.50;4.50;;;;;;;;5084200;27;62273;-84
2022/05/11 04:01:32;;;;;;;;;10.50;5.00;;;;;;;;5102201;27;61941;-84
2022/05/11 04:03:57;;;;;;;;;9.25;8.25;;;;;;;;5102059;27;63197;-84
2022/05/11 04:06:22;;;;;;;;;8.25;8.25;;;;;;;;5102163;27;61777;-83
2022/05/11 04:08:47;;;;;;;;;9.00;9.00;;;;;;;;5102154;27;61752;-84
2022/05/11 04:11:13;;;;;;;;;14.75;9.00;;;;;;;;5102385;27;62333;-83
2022/05/11 04:13:40;;;;;;;;;10.00;6.25;;;;;;;;5101564;27;62010;-84
2022/05/11 04:16:07;;;;;;;;;8.25;7.75;;;;;;;;5083872;27;62185;-84
2022/05/11 04:18:32;;;;;;;;;7.50;5.25;;;;;;;;5083706;27;62046;-84
2022/05/11 04:20:57;;;;;;;;;4.75;4.75;;;;;;;;5102324;27;61692;-84
2022/05/11 04:23:23;;;;;;;;;5.75;3.75;;;;;;;;5101963;27;62671;-84
2022/05/11 04:25:48;;;;;;;;;6.00;4.00;;;;;;;;5101506;27;61758;-83
2022/05/11 04:28:13;;;;;;;;;6.75;5.00;;;;;;;;5102436;27;61720;-83
2022/05/11 04:30:39;;;;;;;;;7.25;4.00;;;;;;;;5102198;27;61697;-84
2022/05/11 04:33:05;;;;;;;;;6.00;6.00;;;;;;;;5101328;27;62709;-84
2022/05/11 04:35:31;;;;;;;;;4.75;4.75;;;;;;;;5102150;27;61925;-84
2022/05/11 04:37:57;;;;;;;;;6.50;5.25;;;;;;;;5101953;27;61648;-83
2022/05/11 04:40:23;;;;;;;;;5.25;4.50;;;;;;;;5102002;27;61784;-83
2022/05/11 04:42:49;;;;;;;;;7.00;6.00;;;;;;;;5101272;27;62555;-83
2022/05/11 04:45:14;;;;;;;;;6.00;5.00;;;;;;;;5083453;27;62220;-84
2022/05/11 04:47:39;;;;;;;;;7.25;5.00;;;;;;;;5101360;27;62141;-82
2022/05/11 04:50:06;;;;;;;;;6.75;4.00;;;;;;;;5102156;27;61906;-83
2022/05/11 04:52:32;;;;;;;;;9.00;7.25;;;;;;;;5082712;27;64674;-83
2022/05/11 04:54:57;;;;;;;;;7.25;6.25;;;;;;;;5082906;27;61773;-83
2022/05/11 04:57:22;;;;;;;;;11.25;5.50;;;;;;;;5105367;27;61739;-83
2022/05/11 04:59:49;;;;;;;;;9.00;6.25;;;;;;;;5105268;27;61729;-83
2022/05/11 05:02:19;;;;;;;;;11.50;5.00;;;;;;;;5085980;27;64908;-84
2022/05/11 05:04:44;;;;;;;;;5.25;4.75;;;;;;;;5105158;27;61961;-81
2022/05/11 05:07:09;;;;;;;;;3.50;3.50;;;;;;;;5105414;27;61741;-84
2022/05/11 05:09:35;;;;;;;;;6.25;6.00;;;;;;;;5104895;27;61918;-84
2022/05/11 05:12:01;;;;;;;;;7.25;4.25;;;;;;;;5104190;27;61951;-84
2022/05/11 05:14:27;;;;;;;;;7.25;5.75;;;;;;;;5105040;27;61790;-84
2022/05/11 05:16:52;;;;;;;;;6.50;5.00;;;;;;;;5104858;27;61737;-85
2022/05/11 05:19:17;;;;;;;;;5.00;5.00;;;;;;;;5086927;27;62137;-81
2022/05/11 05:21:43;;;;;;;;;6.50;6.50;;;;;;;;5104563;27;62345;-85
2022/05/11 05:24:08;;;;;;;;;8.25;5.25;;;;;;;;5104895;27;61984;-86
2022/05/11 05:26:33;;;;;;;;;5.00;5.00;;;;;;;;5105017;27;62159;-86
2022/05/11 05:31:42;;;;;;;;;8.00;6.50;;;;;;;;5103952;27;62404;-81
2022/05/11 05:34:08;;;;;;;;;6.75;6.75;;;;;;;;5102745;27;61907;-79
2022/05/11 05:36:36;;;;;;;;;7.75;5.50;;;;;;;;5103469;27;62865;-82
2022/05/11 05:39:02;;;;;;;;;10.75;8.50;;;;;;;;5104935;27;62041;-82
2022/05/11 05:41:28;;;;;;;;;8.00;5.00;;;;;;;;5103150;27;62663;-80
2022/05/11 05:43:54;;;;;;;;;7.75;6.75;;;;;;;;5085046;27;62000;-79
2022/05/11 05:46:20;;;;;;;;;7.50;5.50;;;;;;;;5084803;27;62009;-79
2022/05/11 05:48:45;;;;;;;;;8.00;6.75;;;;;;;;5103068;27;61994;-78
2022/05/11 05:51:13;;;;;;;;;8.75;6.00;;;;;;;;5103211;27;61910;-79
2022/05/11 05:53:42;;;;;;;;;8.25;6.25;;;;;;;;5100686;27;61896;-78
2022/05/11 05:56:09;;;;;;;;;7.25;6.00;;;;;;;;5102514;27;61954;-79
2022/05/11 05:58:34;;;;;;;;;5.25;3.50;;;;;;;;5103865;27;61756;-78
2022/05/11 06:01:00;;;;;;;;;5.25;4.50;;;;;;;;5083973;27;64766;-79
2022/05/11 06:03:27;;;;;;;;;8.00;5.00;;;;;;;;5103741;27;61970;-82
2022/05/11 06:05:53;;;;;;;;;7.00;6.00;;;;;;;;5101477;27;61986;-83
2022/05/11 06:08:19;;;;;;;;;4.00;4.00;;;;;;;;5102983;27;61876;-81
2022/05/11 06:10:45;;;;;;;;;4.75;3.25;;;;;;;;5103106;27;62588;-80
2022/05/11 06:13:14;;;;;;;;;8.00;5.50;;;;;;;;5103399;27;61710;-78
2022/05/11 06:15:41;;;;;;;;;6.75;6.75;;;;;;;;5085670;27;61783;-79
2022/05/11 06:18:07;;;;;;;;;8.25;5.00;;;;;;;;5085120;27;62091;-84
2022/05/11 06:20:33;;;;;;;;;7.00;7.00;;;;;;;;5102678;27;61770;-83
2022/05/11 06:22:58;;;;;;;;;8.75;6.50;;;;;;;;5085115;27;61732;-84
2022/05/11 06:25:24;;;;;;;;;9.75;6.00;;;;;;;;5103887;27;61932;-83
2022/05/11 06:27:49;;;;;;;;;8.50;7.00;;;;;;;;5085918;27;62138;-84
2022/05/11 06:30:15;;;;;;;;;5.00;4.00;;;;;;;;5084791;27;63729;-83
2022/05/11 06:32:40;;;;;;;;;11.50;7.25;;;;;;;;5103640;27;61871;-84
2022/05/11 06:35:06;;;;;;;;;7.25;5.25;;;;;;;;5085537;27;61801;-83
2022/05/11 06:37:31;;;;;;;;;5.50;5.50;;;;;;;;5085374;27;61785;-80
2022/05/11 06:39:58;;;;;;;;;8.25;6.75;;;;;;;;5102967;27;62864;-82
2022/05/11 06:42:24;;;;;;;;;5.75;5.00;;;;;;;;5103758;27;61790;-83
2022/05/11 06:44:49;;;;;;;;;7.25;7.00;;;;;;;;5084343;27;62221;-82
2022/05/11 06:47:15;;;;;;;;;6.00;5.75;;;;;;;;5103089;27;61936;-83
2022/05/11 06:49:40;;;;;;;;;4.50;4.50;;;;;;;;5083142;27;63606;-82
2022/05/11 06:52:06;;;;;;;;;6.75;3.75;;;;;;;;5083702;27;61822;-83
2022/05/11 06:59:59;;;;;;;;;8.50;6.00;;;;;;;;5101571;27;61822;-82
2022/05/11 07:02:25;;;;;;;;;6.75;6.00;;;;;;;;5103133;27;62136;-81
2022/05/11 07:04:50;;;;;;;;;8.00;6.00;;;;;;;;5104009;27;61807;-81
2022/05/11 07:07:16;;;;;;;;;7.25;7.00;;;;;;;;5104037;27;62159;-82
2022/05/11 07:09:41;;;;;;;;;4.00;4.00;;;;;;;;5102956;27;61861;-81
2022/05/11 07:12:25;;;;;;;;;9.75;7.00;;;;;;;;5103168;27;61746;-81
2022/05/11 07:14:50;;;;;;;;;3.25;3.25;;;;;;;;5085075;27;61832;-86
2022/05/11 07:17:27;;;;;;;;;8.00;5.75;;;;;;;;5085018;27;62120;-86
2022/05/11 07:19:53;;;;;;;;;5.00;4.00;;;;;;;;5101813;27;62026;-81
2022/05/11 07:22:18;;;;;;;;;9.00;6.50;;;;;;;;5082941;27;61852;-86
2022/05/11 07:24:43;;;;;;;;;7.50;6.00;;;;;;;;5083680;27;61880;-84
2022/05/11 07:27:09;;;;;;;;;9.00;7.25;;;;;;;;5102582;27;61890;-86
2022/05/11 07:29:34;;;;;;;;;6.00;5.00;;;;;;;;5101794;27;61946;-85
2022/05/11 07:31:59;;;;;;;;;8.75;7.00;;;;;;;;5101824;27;61996;-86
2022/05/11 07:34:25;;;;;;;;;7.50;5.75;;;;;;;;5101609;27;62145;-85
2022/05/11 07:36:54;;;;;;;;;3.75;3.00;;;;;;;;5083717;27;62030;-86
2022/05/11 07:39:19;;;;;;;;;3.50;3.50;;;;;;;;5082331;27;63730;-86
2022/05/11 07:41:45;;;;;;;;;5.75;4.00;;;;;;;;5083528;27;62012;-86
2022/05/11 07:44:10;;;;;;;;;4.75;4.75;;;;;;;;5101712;27;61961;-85
2022/05/11 07:46:35;;;;;;;;;5.25;4.75;;;;;;;;5101621;27;61698;-84
2022/05/11 07:49:02;;;;;;;;;9.00;7.50;;;;;;;;5082025;27;63465;-85
2022/05/11 07:51:27;;;;;;;;;4.75;4.75;;;;;;;;5082751;27;61852;-85
2022/05/11 07:53:52;;;;;;;;;7.00;5.00;;;;;;;;5082970;27;61944;-84
2022/05/11 08:01:46;;;;;;;;;7.50;3.75;;;;;;;;5098668;27;62043;-86
2022/05/11 08:04:11;;;;;;;;;4.25;4.00;;;;;;;;5100803;27;61965;-85
2022/05/11 08:06:36;;;;;;;;;8.00;5.75;;;;;;;;5084543;27;62309;-86
2022/05/11 08:09:02;;;;;;;;;5.50;4.50;;;;;;;;5102306;27;63061;-86
2022/05/11 08:11:27;;;;;;;;;5.50;5.50;;;;;;;;5084673;27;61891;-86
2022/05/11 08:13:54;;;;;;;;;4.75;4.75;;;;;;;;5103093;27;61767;-85
2022/05/11 08:16:19;;;;;;;;;4.25;3.50;;;;;;;;5084245;27;62489;-86
2022/05/11 08:18:45;;;;;;;;;3.75;3.75;;;;;;;;5102424;27;61860;-86
2022/05/11 08:21:10;;;;;;;;;6.00;6.00;;;;;;;;5102974;27;61782;-86
2022/05/11 08:23:35;;;;;;;;;4.25;3.25;;;;;;;;5102931;27;62075;-86
2022/05/11 08:26:01;;;;;;;;;2.75;2.75;;;;;;;;5103139;27;62111;-86
2022/05/11 08:28:26;;;;;;;;;3.00;2.25;;;;;;;;5102132;27;61727;-86
2022/05/11 08:33:38;;;;;;;;;2.50;2.50;;;;;;;;5102984;27;61906;-86
2022/05/11 08:36:05;;;;;;;;;2.75;2.00;;;;;;;;5084780;27;61994;-86
2022/05/11 08:38:32;;;;;;;;;1.75;1.75;;;;;;;;5100895;27;62013;-83
2022/05/11 08:41:16;;;;;;;;;5.00;3.00;;;;;;;;5082481;27;62042;-81
2022/05/11 08:43:42;;;;;;;;;3.50;2.50;;;;;;;;5099586;27;62291;-83
2022/05/11 08:46:16;;;;;;;;;0.00;0.00;;;;;;;;5101780;27;61964;-83
2022/05/11 08:48:47;;;;;;;;;1.75;1.75;;;;;;;;5099659;27;61951;-84
2022/05/11 08:51:20;;;;;;;;;3.00;1.25;;;;;;;;5101160;27;61787;-82
2022/05/11 08:53:51;;;;;;;;;0.50;0.50;;;;;;;;5082457;27;61783;-81
2022/05/11 08:56:18;;;;;;;;;2.75;1.25;;;;;;;;5083835;27;62117;-83
2022/05/11 08:58:52;;;;;;;;;3.00;1.25;;;;;;;;5101476;27;61943;-84
2022/05/11 09:01:22;;;;;;;;;2.00;2.00;;;;;;;;5099866;27;61900;-85
2022/05/11 09:03:52;;;;;;;;;3.00;1.25;;;;;;;;5101326;27;62113;-85
2022/05/11 09:06:26;;;;;;;;;1.25;1.25;;;;;;;;5084652;27;61816;-85
2022/05/11 09:08:52;;;;;;;;;2.00;2.00;;;;;;;;5080539;27;64025;-85
2022/05/11 09:11:24;;;;;;;;;1.75;1.75;;;;;;;;5102107;27;61913;-85
2022/05/11 09:13:50;;;;;;;;;2.00;2.00;;;;;;;;5083404;27;61799;-85
2022/05/11 09:16:26;;;;;;;;;5.75;3.00;;;;;;;;5082960;27;61871;-85
2022/05/11 09:18:51;;;;;;;;;1.00;1.00;;;;;;;;5099525;27;62029;-84
2022/05/11 09:21:20;;;;;;;;;1.50;1.00;;;;;;;;5102957;27;62134;-85
2022/05/11 09:23:50;;;;;;;;;3.25;1.75;;;;;;;;5101198;27;62005;-84
2022/05/11 09:26:27;;;;;;;;;2.00;2.00;;;;;;;;5082873;27;61841;-85
2022/05/11 09:28:52;;;;;;;;;4.75;2.00;;;;;;;;5116017;27;62596;-85
2022/05/11 09:31:25;;;;;;;;;3.00;2.00;;;;;;;;5122394;27;61870;-85
2022/05/11 09:34:16;;;;;;;;;1.25;1.25;;;;;;;;5100745;27;62121;-85
2022/05/11 09:36:51;;;;;;;;;2.00;1.00;;;;;;;;5119235;27;61757;-85
2022/05/11 09:39:17;;;;;;;;;2.50;1.50;;;;;;;;5121776;27;61824;-85
2022/05/11 09:41:48;;;;;;;;;1.75;1.00;;;;;;;;5122726;27;61832;-85
2022/05/11 09:44:18;;;;;;;;;2.75;1.75;;;;;;;;5103661;27;61951;-85
2022/05/11 09:46:44;;;;;;;;;1.50;1.25;;;;;;;;5101821;27;61997;-84
2022/05/11 09:49:15;;;;;;;;;1.25;1.25;;;;;;;;5103349;27;61860;-83
2022/05/11 09:51:46;;;;;;;;;0.00;0.00;;;;;;;;5104587;27;61896;-84
2022/05/11 09:54:17;;;;;;;;;2.75;2.75;;;;;;;;5105581;27;61756;-84
2022/05/11 09:56:49;;;;;;;;;3.50;1.00;;;;;;;;5106334;27;61837;-85
2022/05/11 09:59:17;;;;;;;;;2.00;1.25;;;;;;;;5101930;27;62719;-84
2022/05/11 10:01:43;;;;;;;;;3.00;1.75;;;;;;;;5103996;27;61988;-84
2022/05/11 10:04:09;;;;;;;;;2.00;2.00;;;;;;;;5104262;27;61922;-84
2022/05/11 10:06:38;;;;;;;;;1.75;1.75;;;;;;;;5104096;27;61823;-82
2022/05/11 10:09:05;;;;;;;;;1.00;1.00;;;;;;;;5104089;27;61824;-84
2022/05/11 10:11:44;;;;;;;;;3.75;1.00;;;;;;;;5104853;27;61710;-84
2022/05/11 10:22:29;;;;;;;;;1.00;1.00;;;;;;;;5104189;27;61781;-83
2022/05/11 10:25:13;;;;;;;;;2.00;2.00;;;;;;;;5104633;27;61951;-84
2022/05/11 10:27:51;;;;;;;;;1.00;1.00;;;;;;;;5111378;27;62038;-83
2022/05/11 10:30:23;;;;;;;;;2.00;2.00;;;;;;;;5103861;27;61730;-84
2022/05/11 10:32:51;;;;;;;;;1.75;1.00;;;;;;;;5085737;27;61849;-84
2022/05/11 10:35:36;;;;;;;;;2.00;2.00;;;;;;;;5104370;27;62031;-83
2022/05/11 10:38:01;;;;;;;;;2.00;1.00;;;;;;;;5102980;27;61907;-83
2022/05/11 10:40:41;;;;;;;;;2.00;2.00;;;;;;;;5102969;27;62523;-83
2022/05/11 10:43:09;;;;;;;;;1.75;1.50;;;;;;;;5101797;27;61893;-84
2022/05/11 10:45:35;;;;;;;;;3.50;1.00;;;;;;;;5100306;27;61755;-83
2022/05/11 10:48:00;;;;;;;;;3.00;3.00;;;;;;;;5103133;27;61767;-82
2022/05/11 10:50:34;;;;;;;;;4.00;1.00;;;;;;;;5084327;27;63589;-82
2022/05/11 10:53:09;;;;;;;;;2.33;1.00;;;;;;;;5078972;28;61904;-82
2022/05/11 10:55:42;;;;;;;;;1.00;1.00;;;;;;;;5083196;28;61871;-81
2022/05/11 10:58:16;;;;;;;;;2.00;0.67;;;;;;;;5100159;27;61751;-81
2022/05/11 11:00:53;;;;;;;;;2.00;1.00;;;;;;;;5103286;27;61940;-80
2022/05/11 11:03:21;;;;;;;;;1.50;1.50;;;;;;;;5103222;27;61960;-82
2022/05/11 11:08:55;;;;;;;;;5.00;4.75;;;;;;;;5101973;27;61885;-83
2022/05/11 11:11:27;;;;;;;;;51.50;39.50;;;;;;;;5084790;27;64390;-84
2022/05/11 11:13:59;;;;;;;;;4.00;4.00;;;;;;;;5103971;27;61697;-84
2022/05/11 11:16:31;;;;;;;;;6.25;3.25;;;;;;;;5103769;27;61819;-84
2022/05/11 11:18:57;;;;;;;;;14.75;12.25;;;;;;;;5103482;27;61780;-83
2022/05/11 11:21:23;;;;;;;;;9.25;7.50;;;;;;;;5084787;27;63642;-84
2022/05/11 11:24:08;;;;;;;;;2.50;2.25;;;;;;;;5103965;27;61743;-84
2022/05/11 11:26:45;;;;;;;;;1.00;1.00;;;;;;;;5083859;27;61907;-84
2022/05/11 11:29:11;;;;;;;;;0.67;0.67;;;;;;;;5102455;27;61814;-83
2022/05/11 11:31:56;;;;;;;;;1.33;1.33;;;;;;;;5102593;27;62259;-82
2022/05/11 11:34:23;;;;;;;;;1.33;1.33;;;;;;;;5100597;27;62435;-83
2022/05/11 11:36:48;;;;;;;;;2.33;1.67;;;;;;;;5103161;27;61912;-83
2022/05/11 11:39:33;;;;;;;;;0.00;0.00;;;;;;;;5102747;27;62340;-82
2022/05/11 11:42:06;;;;;;;;;1.67;1.33;;;;;;;;5080881;27;64345;-83
2022/05/11 11:44:39;;;;;;;;;3.00;1.67;;;;;;;;5084425;27;61953;-83
2022/05/11 11:47:25;;;;;;;;;0.33;0.33;;;;;;;;5100049;27;62161;-83
2022/05/11 11:49:50;;;;;;;;;0.67;0.67;;;;;;;;5103084;27;61734;-83
2022/05/11 11:52:34;;;;;;;;;1.33;1.33;;;;;;;;5101738;27;62023;-84
2022/05/11 11:55:00;;;;;;;;;1.00;1.00;;;;;;;;5102606;27;61866;-81
2022/05/11 11:57:25;;;;;;;;;2.67;1.67;;;;;;;;5103268;27;61896;-81
2022/05/11 11:59:51;;;;;;;;;3.67;1.33;;;;;;;;5103480;27;62015;-83
2022/05/11 12:02:27;;;;;;;;;0.33;0.33;;;;;;;;5101239;27;62844;-84
2022/05/11 12:04:53;;;;;;;;;1.00;0.00;;;;;;;;5098227;27;61820;-84
2022/05/11 12:15:57;;;;;;;;;1.00;0.00;;;;;;;;5082726;28;61823;-84
2022/05/11 12:18:26;;;;;;;;;3.00;0.00;;;;;;;;5086931;27;62003;-84
2022/05/11 12:20:53;;;;;;;;;0.67;0.00;;;;;;;;5103132;27;61714;-83
2022/05/11 12:23:21;;;;;;;;;0.00;0.00;;;;;;;;5101330;27;61847;-84
2022/05/11 12:25:58;;;;;;;;;0.00;0.00;;;;;;;;5102532;27;62002;-84
2022/05/11 12:28:32;;;;;;;;;0.00;0.00;;;;;;;;5102919;27;61621;-84
2022/05/11 12:30:58;;;;;;;;;0.00;0.00;;;;;;;;5103032;27;61875;-84
2022/05/11 12:33:28;;;;;;;;;0.33;0.33;;;;;;;;5102026;27;62584;-84
2022/05/11 12:35:54;;;;;;;;;0.00;0.00;;;;;;;;5084387;27;61933;-81
2022/05/11 12:38:33;;;;;;;;;0.33;0.33;;;;;;;;5102280;27;61782;-84
2022/05/11 12:41:00;;;;;;;;;2.33;1.00;;;;;;;;5102367;27;61806;-84
2022/05/11 12:43:34;;;;;;;;;0.00;0.00;;;;;;;;5083064;27;65135;-84
2022/05/11 12:46:00;;;;;;;;;1.00;1.00;;;;;;;;5102656;27;61849;-84
2022/05/11 12:48:30;;;;;;;;;0.00;0.00;;;;;;;;5101764;27;61696;-84
2022/05/11 12:51:04;;;;;;;;;0.67;0.67;;;;;;;;5102895;27;61715;-83
2022/05/11 12:53:31;;;;;;;;;1.00;0.00;;;;;;;;5101470;27;62521;-84
2022/05/11 12:56:11;;;;;;;;;0.00;0.00;;;;;;;;5118089;27;61820;-83
2022/05/11 12:58:41;;;;;;;;;0.00;0.00;;;;;;;;5118203;27;61783;-84
2022/05/11 13:01:06;;;;;;;;;0.00;0.00;;;;;;;;5102688;27;62003;-84
2022/05/11 13:03:36;;;;;;;;;0.00;0.00;;;;;;;;5101640;27;62749;-84
2022/05/11 13:06:07;;;;;;;;;0.00;0.00;;;;;;;;5102526;27;61774;-84
2022/05/11 13:08:37;;;;;;;;;1.00;0.00;;;;;;;;5101685;27;61823;-84
2022/05/11 13:11:04;;;;;;;;;0.67;0.67;;;;;;;;5102634;27;61932;-84
2022/05/11 13:13:31;;;;;;;;;0.00;0.00;;;;;;;;5101623;27;62980;-84
2022/05/11 13:16:07;;;;;;;;;0.00;0.00;;;;;;;;5102476;27;61798;-83
2022/05/11 13:18:33;;;;;;;;;0.00;0.00;;;;;;;;5121406;27;61991;-84
2022/05/11 13:21:01;;;;;;;;;0.00;0.00;;;;;;;;5106003;27;61902;-84
2022/05/11 13:23:27;;;;;;;;;0.00;0.00;;;;;;;;5104781;27;62201;-84
2022/05/11 13:25:54;;;;;;;;;0.00;0.00;;;;;;;;5104980;27;61693;-82
2022/05/11 13:28:19;;;;;;;;;0.00;0.00;;;;;;;;5105701;27;61767;-84
2022/05/11 13:30:46;;;;;;;;;0.00;0.00;;;;;;;;5105928;27;61772;-85
2022/05/11 13:33:30;;;;;;;;;0.00;0.00;;;;;;;;5104545;27;61738;-83
2022/05/11 13:36:14;;;;;;;;;0.00;0.00;;;;;;;;5105648;27;61957;-81
2022/05/11 13:38:53;;;;;;;;;0.00;0.00;;;;;;;;5105279;27;62126;-84
2022/05/11 13:41:22;;;;;;;;;0.00;0.00;;;;;;;;5104977;27;61793;-84
2022/05/11 13:43:49;;;;;;;;;0.00;0.00;;;;;;;;5104656;27;61849;-85
2022/05/11 13:46:33;;;;;;;;;0.00;0.00;;;;;;;;5104900;27;61826;-85
2022/05/11 13:49:17;;;;;;;;;0.00;0.00;;;;;;;;5102444;27;61757;-84
2022/05/11 13:51:42;;;;;;;;;0.00;0.00;;;;;;;;5102494;27;61706;-84
2022/05/11 13:54:22;;;;;;;;;0.00;0.00;;;;;;;;5102696;27;61880;-85
2022/05/11 13:56:56;;;;;;;;;0.33;0.00;;;;;;;;5103541;27;61858;-85
2022/05/11 13:59:23;;;;;;;;;0.00;0.00;;;;;;;;5101578;27;62102;-85
2022/05/11 14:01:49;;;;;;;;;0.00;0.00;;;;;;;;5104041;27;62096;-85
2022/05/11 14:04:25;;;;;;;;;0.00;0.00;;;;;;;;5104108;27;61915;-85
2022/05/11 14:06:50;;;;;;;;;0.00;0.00;;;;;;;;5102747;27;61858;-86
2022/05/11 14:09:15;;;;;;;;;0.00;0.00;;;;;;;;5102714;27;61889;-85
2022/05/11 14:11:41;;;;;;;;;0.00;0.00;;;;;;;;5103790;27;62059;-85
2022/05/11 14:14:07;;;;;;;;;0.00;0.00;;;;;;;;5084660;27;62706;-84
2022/05/11 14:16:32;;;;;;;;;0.00;0.00;;;;;;;;5103388;27;61770;-86
2022/05/11 14:18:57;;;;;;;;;0.00;0.00;;;;;;;;5103390;27;61957;-85
2022/05/11 14:21:24;;;;;;;;;0.00;0.00;;;;;;;;5085015;27;61737;-85
2022/05/11 14:23:49;;;;;;;;;0.00;0.00;;;;;;;;5102532;27;61833;-86
2022/05/11 14:26:14;;;;;;;;;0.00;0.00;;;;;;;;5103131;27;62067;-84
2022/05/11 14:28:40;;;;;;;;;0.00;0.00;;;;;;;;5103201;27;62342;-85
2022/05/11 14:31:06;;;;;;;;;0.00;0.00;;;;;;;;5103231;27;61827;-84
2022/05/11 14:33:32;;;;;;;;;0.00;0.00;;;;;;;;5099782;27;62753;-86
2022/05/11 14:35:57;;;;;;;;;0.00;0.00;;;;;;;;5102834;27;61991;-85
2022/05/11 14:38:23;;;;;;;;;0.00;0.00;;;;;;;;5103284;27;61991;-85
2022/05/11 14:40:48;;;;;;;;;0.00;0.00;;;;;;;;5102700;27;62191;-85
2022/05/11 14:43:17;;;;;;;;;0.00;0.00;;;;;;;;5103743;27;62515;-86
2022/05/11 14:45:42;;;;;;;;;0.00;0.00;;;;;;;;5103858;27;61793;-86
2022/05/11 14:48:23;;;;;;;;;0.00;0.00;;;;;;;;5103306;27;61769;-85
2022/05/11 14:50:48;;;;;;;;;0.00;0.00;;;;;;;;5102328;27;62394;-84
2022/05/11 14:53:14;;;;;;;;;0.00;0.00;;;;;;;;5102566;27;62648;-85
2022/05/11 14:55:39;;;;;;;;;0.00;0.00;;;;;;;;5083780;27;61835;-85
2022/05/11 15:03:36;;;;;;;;;2.67;0.00;;;;;;;;5100517;27;62270;-83
2022/05/11 15:06:02;;;;;;;;;0.00;0.00;;;;;;;;5083574;27;62427;-83
2022/05/11 15:08:28;;;;;;;;;0.00;0.00;;;;;;;;5101480;27;62136;-83
2022/05/11 15:13:29;;;;;;;;;0.00;0.00;;;;;;;;5100671;27;62181;-82
2022/05/11 15:13:39;;;;;;;;;0.33;0.33;;;;;;;;5099821;27;61997;-83
2022/05/11 15:16:04;;;;;;;;;0.00;0.00;;;;;;;;5100796;27;61808;-82
2022/05/11 15:18:36;;;;;;;;;2.00;0.00;;;;;;;;5100917;27;62129;-84
2022/05/11 15:21:01;;;;;;;;;1.00;1.00;;;;;;;;5099199;27;61980;-84
2022/05/11 15:23:26;;;;;;;;;0.33;0.33;;;;;;;;5100600;27;62807;-84
2022/05/11 15:25:52;;;;;;;;;1.00;0.00;;;;;;;;5102293;27;61753;-84
2022/05/11 15:28:17;;;;;;;;;1.33;0.00;;;;;;;;5083289;27;61769;-84
2022/05/11 15:30:43;;;;;;;;;0.00;0.00;;;;;;;;5102781;27;61719;-84
2022/05/11 15:33:16;;;;;;;;;0.00;0.00;;;;;;;;5082700;27;63498;-83
2022/05/11 15:35:42;;;;;;;;;0.67;0.67;;;;;;;;5100838;27;61820;-83